createdAt,value
2023-06-29T00:01:06.444Z,23.39
2023-06-29T00:03:34.807Z,24.15
2023-06-29T00:06:03.037Z,23.38
2023-06-29T00:08:36.930Z,24.64
2023-06-29T00:11:05.879Z,24.63
2023-06-29T00:13:34.185Z,23.18
2023-06-29T00:16:03.611Z,24.22
2023-06-29T00:18:31.711Z,22.95
2023-06-29T00:20:59.833Z,24.17
2023-06-29T00:23:28.392Z,23.16
2023-06-29T00:25:57.597Z,23.72
2023-06-29T00:28:25.901Z,23.93
2023-06-29T00:30:53.979Z,23.13
2023-06-29T00:33:23.374Z,23.97
2023-06-29T00:35:51.383Z,24.39
2023-06-29T00:38:22.163Z,25.28
2023-06-29T00:40:50.403Z,23.78
2023-06-29T00:43:19.109Z,23.62
2023-06-29T00:45:47.116Z,22.66
2023-06-29T00:48:15.101Z,23.77
2023-06-29T00:50:44.557Z,22.81
2023-06-29T00:53:12.468Z,24.03
2023-06-29T00:55:40.671Z,24.92
2023-06-29T00:58:08.713Z,24.44
2023-06-29T01:00:36.783Z,25.14
2023-06-29T01:03:04.980Z,24.61
2023-06-29T01:05:35.151Z,23.57
2023-06-29T01:08:06.175Z,24.31
2023-06-29T01:10:34.358Z,23.86
2023-06-29T01:13:03.019Z,22.63
2023-06-29T01:15:31.097Z,24.59
2023-06-29T01:18:00.780Z,23.97
2023-06-29T01:20:28.909Z,22.39
2023-06-29T01:22:58.471Z,23.33
2023-06-29T01:25:27.964Z,24.34
2023-06-29T01:27:56.038Z,23.92
2023-06-29T01:30:24.795Z,23.55
2023-06-29T01:32:52.815Z,23.12
2023-06-29T01:35:21.349Z,24.06
2023-06-29T01:37:54.795Z,22.45
2023-06-29T01:40:25.510Z,23.37
2023-06-29T01:42:54.929Z,23.26
2023-06-29T01:45:23.323Z,23.81
2023-06-29T01:47:51.350Z,23.17
2023-06-29T01:50:19.750Z,23.21
2023-06-29T01:52:51.360Z,24.10
2023-06-29T01:55:19.444Z,23.11
2023-06-29T01:57:48.645Z,24.63
2023-06-29T02:00:18.662Z,23.06
2023-06-29T02:02:59.842Z,23.32
2023-06-29T02:05:28.010Z,23.83
2023-06-29T02:07:56.274Z,23.92
2023-06-29T02:10:24.275Z,24.63
2023-06-29T02:12:52.290Z,22.99
2023-06-29T02:15:21.900Z,22.62
2023-06-29T02:17:50.138Z,24.39
2023-06-29T02:20:18.757Z,23.73
2023-06-29T02:22:46.885Z,23.83
2023-06-29T02:25:16.163Z,23.72
2023-06-29T02:27:44.260Z,23.36
2023-06-29T02:30:13.164Z,22.76
2023-06-29T02:32:43.562Z,24.67
2023-06-29T02:35:11.554Z,24.13
2023-06-29T02:37:39.830Z,24.14
2023-06-29T02:40:08.961Z,24.70
2023-06-29T02:42:37.869Z,23.16
2023-06-29T02:45:07.254Z,24.14
2023-06-29T02:47:35.654Z,23.86
2023-06-29T02:50:05.342Z,24.73
2023-06-29T02:52:34.097Z,24.18
2023-06-29T02:55:03.159Z,23.12
2023-06-29T02:57:31.170Z,22.23
2023-06-29T02:59:59.136Z,24.05
2023-06-29T03:02:27.079Z,22.81
2023-06-29T03:04:54.944Z,23.21
2023-06-29T03:07:24.191Z,23.62
2023-06-29T03:09:52.105Z,23.44
2023-06-29T03:12:19.885Z,23.76
2023-06-29T03:14:47.828Z,23.14
2023-06-29T03:17:15.742Z,23.30
2023-06-29T03:19:43.594Z,24.59
2023-06-29T03:22:11.457Z,23.77
2023-06-29T03:24:40.733Z,22.70
2023-06-29T03:27:08.582Z,24.16
2023-06-29T03:29:36.551Z,23.95
2023-06-29T03:32:04.527Z,24.79
2023-06-29T03:34:32.285Z,24.82
2023-06-29T03:37:00.134Z,24.30
2023-06-29T03:39:27.972Z,24.60
2023-06-29T03:41:57.687Z,23.58
2023-06-29T03:44:25.585Z,23.59
2023-06-29T03:46:53.900Z,24.96
2023-06-29T03:49:21.772Z,24.25
2023-06-29T03:51:49.567Z,23.87
2023-06-29T03:54:17.697Z,24.04
2023-06-29T03:56:45.611Z,24.17
2023-06-29T03:59:15.362Z,23.40
2023-06-29T04:01:43.285Z,23.39
2023-06-29T04:04:11.363Z,23.08
2023-06-29T04:06:39.494Z,24.15
2023-06-29T04:09:07.646Z,23.15
2023-06-29T04:11:35.507Z,24.45
2023-06-29T04:14:03.433Z,23.52
2023-06-29T04:16:32.657Z,24.46
2023-06-29T04:19:00.730Z,23.88
2023-06-29T04:21:28.733Z,23.75
2023-06-29T04:23:56.643Z,23.43
2023-06-29T04:26:29.005Z,24.96
2023-06-29T04:29:02.013Z,22.53
2023-06-29T04:31:31.116Z,23.86
2023-06-29T04:34:00.428Z,24.10
2023-06-29T04:36:28.320Z,23.46
2023-06-29T04:38:56.347Z,24.98
2023-06-29T04:41:31.992Z,24.61
2023-06-29T04:44:00.705Z,24.19
2023-06-29T04:46:29.326Z,24.57
2023-06-29T04:48:57.352Z,24.68
2023-06-29T04:51:27.483Z,24.51
2023-06-29T04:53:55.632Z,24.77
2023-06-29T04:56:23.795Z,23.91
2023-06-29T04:58:51.705Z,24.43
2023-06-29T05:01:19.808Z,23.78
2023-06-29T05:03:47.816Z,23.90
2023-06-29T05:06:16.061Z,25.06
2023-06-29T05:08:45.794Z,24.99
2023-06-29T05:11:13.765Z,25.41
2023-06-29T05:13:41.856Z,24.81
2023-06-29T05:16:09.940Z,22.97
2023-06-29T05:18:38.464Z,23.68
2023-06-29T05:21:06.762Z,24.10
2023-06-29T05:23:34.834Z,25.14
2023-06-29T05:26:06.817Z,25.03
2023-06-29T05:28:35.923Z,25.25
2023-06-29T05:31:04.343Z,25.76
2023-06-29T05:33:32.283Z,24.51
2023-06-29T05:36:00.324Z,24.92
2023-06-29T05:38:30.779Z,25.89
2023-06-29T05:41:01.848Z,23.82
2023-06-29T05:43:32.421Z,24.59
2023-06-29T05:46:01.128Z,25.91
2023-06-29T05:48:29.460Z,25.96
2023-06-29T05:50:58.042Z,24.14
2023-06-29T05:53:26.578Z,25.47
2023-06-29T05:55:55.251Z,25.05
2023-06-29T05:58:24.135Z,26.12
2023-06-29T06:00:54.315Z,26.34
2023-06-29T06:03:23.724Z,25.56
2023-06-29T06:05:52.257Z,26.06
2023-06-29T06:08:20.463Z,25.45
2023-06-29T06:10:49.327Z,26.82
2023-06-29T06:13:17.491Z,26.18
2023-06-29T06:15:45.740Z,26.44
2023-06-29T06:18:16.008Z,26.45
2023-06-29T06:20:45.738Z,26.33
2023-06-29T06:23:14.203Z,27.33
2023-06-29T06:26:03.418Z,27.44
2023-06-29T06:28:31.955Z,25.67
2023-06-29T06:31:00.092Z,26.42
2023-06-29T06:33:35.360Z,25.30
2023-06-29T06:36:04.704Z,27.00
2023-06-29T06:41:13.020Z,26.81
2023-06-29T06:43:41.831Z,27.42
2023-06-29T06:46:10.914Z,26.87
2023-06-29T06:48:40.844Z,26.77
2023-06-29T06:51:09.304Z,26.31
2023-06-29T06:53:37.715Z,25.73
2023-06-29T06:56:07.197Z,25.97
2023-06-29T06:58:36.389Z,26.58
2023-06-29T07:01:04.690Z,25.95
2023-06-29T07:03:32.871Z,26.48
2023-06-29T07:06:02.362Z,26.20
2023-06-29T07:08:31.641Z,26.73
2023-06-29T07:10:59.913Z,26.53
2023-06-29T07:13:28.054Z,26.86
2023-06-29T07:21:16.906Z,27.48
2023-06-29T07:24:24.732Z,26.37
2023-06-29T07:26:52.710Z,27.16
2023-06-29T07:29:44.039Z,27.79
2023-06-29T07:32:14.112Z,27.83
2023-06-29T07:35:11.888Z,26.10
2023-06-29T07:37:41.158Z,27.71
2023-06-29T07:40:30.325Z,25.78
2023-06-29T07:43:02.217Z,27.37
2023-06-29T07:45:31.398Z,25.74
2023-06-29T07:47:59.644Z,26.51
2023-06-29T07:50:27.642Z,26.14
2023-06-29T07:52:57.121Z,27.24
2023-06-29T07:55:25.617Z,27.58
2023-06-29T08:00:24.581Z,27.27
2023-06-29T08:02:54.441Z,25.79
2023-06-29T08:07:53.871Z,27.47
2023-06-29T08:10:23.272Z,27.23
2023-06-29T08:12:51.466Z,26.58
2023-06-29T08:15:19.569Z,26.60
2023-06-29T08:17:50.384Z,28.15
2023-06-29T08:20:18.636Z,28.28
2023-06-29T08:22:48.586Z,25.72
2023-06-29T08:25:16.522Z,26.39
2023-06-29T08:27:46.046Z,28.53
2023-06-29T08:30:14.970Z,26.65
2023-06-29T08:32:43.619Z,27.00
2023-06-29T08:35:11.652Z,28.26
2023-06-29T08:37:39.518Z,28.31
2023-06-29T08:40:08.850Z,28.79
2023-06-29T08:42:38.406Z,29.45
2023-06-29T08:45:09.186Z,27.67
2023-06-29T08:47:37.182Z,29.30
2023-06-29T08:50:06.325Z,29.02
2023-06-29T08:52:35.508Z,29.94
2023-06-29T08:55:03.574Z,30.61
2023-06-29T08:57:33.058Z,29.43
2023-06-29T09:00:01.257Z,30.31
2023-06-29T09:02:30.759Z,29.68
2023-06-29T09:04:59.729Z,30.89
2023-06-29T09:07:27.716Z,30.87
2023-06-29T09:09:56.381Z,29.31
2023-06-29T09:12:24.293Z,30.43
2023-06-29T09:14:52.072Z,28.69
2023-06-29T09:17:22.969Z,30.25
2023-06-29T09:19:56.791Z,30.41
2023-06-29T09:22:25.780Z,30.35
2023-06-29T09:25:03.385Z,30.95
2023-06-29T09:27:33.004Z,29.55
2023-06-29T09:30:01.550Z,29.85
2023-06-29T09:32:30.911Z,29.66
2023-06-29T09:35:07.068Z,30.56
2023-06-29T09:37:35.143Z,30.18
2023-06-29T09:40:06.872Z,31.28
2023-06-29T09:42:37.857Z,31.07
2023-06-29T09:45:08.820Z,29.68
2023-06-29T09:50:22.899Z,30.82
2023-06-29T09:52:55.155Z,30.10
2023-06-29T09:55:30.557Z,29.93
2023-06-29T09:57:59.057Z,31.18
2023-06-29T10:00:29.249Z,29.29
2023-06-29T10:11:12.456Z,30.82
2023-06-29T10:13:44.421Z,30.70
2023-06-29T10:16:15.373Z,30.67
2023-06-29T10:18:43.888Z,30.37
2023-06-29T10:21:11.670Z,30.68
2023-06-29T10:23:39.737Z,30.74
2023-06-29T10:26:07.704Z,30.80
2023-06-29T10:28:35.583Z,30.88
2023-06-29T10:31:05.635Z,31.03
2023-06-29T10:33:33.480Z,31.23
2023-06-29T10:36:02.910Z,31.37
2023-06-29T10:38:33.327Z,31.57
2023-06-29T10:41:01.129Z,31.81
2023-06-29T10:43:29.117Z,32.07
2023-06-29T10:45:57.000Z,32.45
2023-06-29T10:48:46.986Z,32.73
2023-06-29T10:51:15.002Z,32.92
2023-06-29T10:53:42.764Z,33.11
2023-06-29T10:56:10.730Z,33.25
2023-06-29T10:58:38.990Z,33.34
2023-06-29T11:01:06.788Z,33.64
2023-06-29T11:03:37.278Z,33.98
2023-06-29T11:06:05.366Z,34.17
2023-06-29T11:08:33.302Z,34.33
2023-06-29T11:11:13.878Z,34.74
2023-06-29T11:13:41.681Z,34.89
2023-06-29T11:16:09.458Z,34.93
2023-06-29T11:18:38.560Z,35.12
2023-06-29T11:21:06.374Z,35.22
2023-06-29T11:23:34.117Z,35.16
2023-06-29T11:26:02.654Z,35.02
2023-06-29T11:28:33.575Z,34.94
2023-06-29T11:31:01.372Z,34.79
2023-06-29T11:36:27.678Z,34.62
2023-06-29T11:41:24.746Z,34.69
2023-06-29T11:43:52.663Z,34.64
2023-06-29T11:46:20.507Z,34.51
2023-06-29T11:48:56.451Z,34.34
2023-06-29T11:51:27.021Z,34.26
2023-06-29T11:53:55.062Z,34.01
2023-06-29T11:56:26.218Z,34.04
2023-06-29T11:58:54.122Z,33.97
2023-06-29T12:01:22.695Z,33.77
2023-06-29T12:03:50.767Z,33.46
2023-06-29T12:06:18.589Z,33.24
2023-06-29T12:08:52.005Z,32.95
2023-06-29T12:11:22.939Z,32.79
2023-06-29T12:13:51.012Z,32.61
2023-06-29T12:18:50.298Z,32.30
2023-06-29T12:21:22.088Z,32.10
2023-06-29T12:23:52.129Z,31.88
2023-06-29T12:26:20.381Z,31.81
2023-06-29T12:28:48.367Z,31.71
2023-06-29T12:31:16.148Z,31.47
2023-06-29T12:33:46.643Z,31.36
2023-06-29T12:36:14.394Z,31.36
2023-06-29T12:38:42.338Z,31.25
2023-06-29T12:41:11.471Z,31.21
2023-06-29T12:43:39.339Z,31.23
2023-06-29T12:46:34.795Z,31.16
2023-06-29T12:49:02.572Z,31.12
2023-06-29T12:51:30.704Z,30.95
2023-06-29T12:53:58.511Z,31.20
2023-06-29T12:56:27.955Z,31.30
2023-06-29T12:58:55.918Z,31.45
2023-06-29T13:01:24.063Z,31.53
2023-06-29T13:03:52.063Z,31.60
2023-06-29T13:06:20.004Z,31.56
2023-06-29T13:08:56.775Z,31.51
2023-06-29T13:11:24.574Z,31.49
2023-06-29T13:13:53.663Z,31.46
2023-06-29T13:16:21.438Z,31.48
2023-06-29T13:18:49.316Z,31.54
2023-06-29T13:21:17.450Z,31.59
2023-06-29T13:23:45.270Z,31.64
2023-06-29T13:26:13.097Z,31.67
2023-06-29T13:28:40.938Z,31.67
2023-06-29T13:31:10.080Z,31.75
2023-06-29T13:33:37.818Z,31.79
2023-06-29T13:36:06.364Z,31.82
2023-06-29T13:38:34.203Z,31.78
2023-06-29T13:41:02.016Z,31.81
2023-06-29T13:43:29.743Z,31.77
2023-06-29T13:45:57.567Z,31.70
2023-06-29T13:48:26.758Z,31.02
2023-06-29T13:50:54.830Z,31.44
2023-06-29T13:53:22.895Z,31.28
2023-06-29T13:55:50.688Z,31.18
2023-06-29T13:58:18.419Z,31.14
2023-06-29T14:00:46.213Z,31.10
2023-06-29T14:03:14.385Z,31.03
2023-06-29T14:05:43.882Z,30.98
2023-06-29T14:08:13.006Z,30.79
2023-06-29T14:10:41.958Z,30.78
2023-06-29T14:13:09.752Z,30.68
2023-06-29T14:15:38.098Z,30.56
2023-06-29T14:18:05.919Z,30.47
2023-06-29T14:20:33.836Z,30.38
2023-06-29T14:23:03.106Z,30.27
2023-06-29T14:25:30.825Z,30.21
2023-06-29T14:27:59.921Z,30.12
2023-06-29T14:30:27.697Z,29.99
2023-06-29T14:32:55.502Z,29.96
2023-06-29T14:35:31.968Z,29.91
2023-06-29T14:38:13.524Z,29.88
2023-06-29T14:40:44.053Z,29.86
2023-06-29T14:43:12.393Z,29.90
2023-06-29T14:45:40.404Z,29.86
2023-06-29T14:48:08.479Z,29.95
2023-06-29T14:50:36.195Z,29.99
2023-06-29T14:53:03.993Z,30.01
2023-06-29T14:55:31.748Z,29.94
2023-06-29T14:58:01.589Z,29.98
2023-06-29T15:00:29.477Z,30.05
2023-06-29T15:02:57.378Z,30.11
2023-06-29T15:05:25.196Z,30.21
2023-06-29T15:07:53.952Z,30.24
2023-06-29T15:10:21.811Z,30.26
2023-06-29T15:12:49.612Z,30.28
2023-06-29T15:15:18.833Z,30.01
2023-06-29T15:17:46.656Z,30.29
2023-06-29T15:20:16.466Z,30.30
2023-06-29T15:22:45.666Z,30.32
2023-06-29T15:25:13.611Z,30.30
2023-06-29T15:27:42.047Z,30.17
2023-06-29T15:30:10.702Z,30.21
2023-06-29T15:32:39.934Z,30.21
2023-06-29T15:35:10.368Z,30.17
2023-06-29T15:37:38.254Z,30.23
2023-06-29T15:40:07.494Z,30.20
2023-06-29T15:42:35.387Z,30.30
2023-06-29T15:45:03.213Z,30.25
2023-06-29T15:47:31.008Z,30.37
2023-06-29T15:50:00.649Z,30.35
2023-06-29T15:52:28.823Z,30.35
2023-06-29T15:54:56.626Z,30.33
2023-06-29T15:57:24.490Z,30.26
2023-06-29T15:59:52.449Z,30.20
2023-06-29T16:02:20.317Z,30.16
2023-06-29T16:04:48.175Z,29.73
2023-06-29T16:07:17.896Z,29.69
2023-06-29T16:09:45.673Z,30.00
2023-06-29T16:12:13.437Z,29.95
2023-06-29T16:14:41.231Z,29.91
2023-06-29T16:17:09.195Z,29.80
2023-06-29T16:19:37.374Z,29.78
2023-06-29T16:22:07.766Z,29.76
2023-06-29T16:24:37.343Z,29.78
2023-06-29T16:27:05.721Z,29.86
2023-06-29T16:29:33.445Z,29.95
2023-06-29T16:32:05.202Z,30.01
2023-06-29T16:34:34.120Z,30.07
2023-06-29T16:37:02.241Z,30.13
2023-06-29T16:39:30.087Z,30.20
2023-06-29T16:41:59.403Z,30.29
2023-06-29T16:44:27.463Z,30.32
2023-06-29T16:46:55.633Z,30.11
2023-06-29T16:49:23.388Z,30.27
2023-06-29T16:51:51.094Z,30.25
2023-06-29T16:54:21.092Z,30.12
2023-06-29T16:56:49.371Z,30.17
2023-06-29T16:59:18.533Z,30.16
2023-06-29T17:01:46.299Z,30.16
2023-06-29T17:04:14.926Z,30.17
2023-06-29T17:06:42.728Z,29.94
2023-06-29T17:09:11.354Z,30.14
2023-06-29T17:11:39.078Z,30.14
2023-06-29T17:14:06.881Z,30.11
2023-06-29T17:16:36.049Z,30.08
2023-06-29T17:19:03.881Z,30.02
2023-06-29T17:21:32.057Z,30.03
2023-06-29T17:24:01.754Z,29.97
2023-06-29T17:26:29.647Z,30.00
2023-06-29T17:28:58.121Z,30.00
2023-06-29T17:31:26.460Z,29.98
2023-06-29T17:33:56.021Z,29.97
2023-06-29T17:36:23.807Z,29.97
2023-06-29T17:38:51.859Z,29.94
2023-06-29T17:43:54.211Z,29.86
2023-06-29T17:46:22.023Z,29.92
2023-06-29T17:48:49.768Z,29.96
2023-06-29T17:51:20.078Z,29.94
2023-06-29T17:53:48.337Z,29.75
2023-06-29T17:56:16.492Z,29.90
2023-06-29T17:58:44.644Z,29.85
2023-06-29T18:01:13.609Z,29.83
2023-06-29T18:03:41.484Z,29.76
2023-06-29T18:06:09.748Z,29.69
2023-06-29T18:08:38.819Z,29.57
2023-06-29T18:11:08.234Z,29.47
2023-06-29T18:13:36.021Z,29.37
2023-06-29T18:16:03.954Z,29.30
2023-06-29T18:18:33.063Z,29.18
2023-06-29T18:21:02.616Z,28.70
2023-06-29T18:23:31.431Z,28.98
2023-06-29T18:26:00.637Z,28.88
2023-06-29T18:28:28.389Z,28.83
2023-06-29T18:30:56.212Z,28.77
2023-06-29T18:33:24.020Z,28.68
2023-06-29T18:35:52.001Z,28.62
2023-06-29T18:38:19.835Z,28.50
2023-06-29T18:40:47.731Z,28.42
2023-06-29T18:43:16.999Z,28.25
2023-06-29T18:45:45.170Z,28.29
2023-06-29T18:48:13.317Z,28.13
2023-06-29T18:50:41.075Z,28.30
2023-06-29T18:53:09.160Z,28.04
2023-06-29T18:55:36.920Z,28.20
2023-06-29T18:58:04.754Z,28.14
2023-06-29T19:00:34.006Z,28.14
2023-06-29T19:03:01.880Z,28.11
2023-06-29T19:05:29.922Z,28.06
2023-06-29T19:07:57.754Z,28.04
2023-06-29T19:10:26.652Z,28.03
2023-06-29T19:12:54.512Z,28.00
2023-06-29T19:15:22.283Z,27.91
2023-06-29T19:17:51.538Z,27.91
2023-06-29T19:20:19.506Z,27.87
2023-06-29T19:22:47.531Z,27.83
2023-06-29T19:25:15.379Z,27.79
2023-06-29T19:27:43.186Z,27.77
2023-06-29T19:30:12.392Z,27.72
2023-06-29T19:32:40.239Z,27.68
2023-06-29T19:35:10.241Z,27.66
2023-06-29T19:37:38.032Z,27.52
2023-06-29T19:40:06.953Z,27.63
2023-06-29T19:42:34.671Z,27.63
2023-06-29T19:45:03.138Z,27.54
2023-06-29T19:47:30.891Z,27.49
2023-06-29T19:49:59.159Z,27.54
2023-06-29T19:52:28.342Z,27.52
2023-06-29T19:54:56.430Z,27.49
2023-06-29T19:57:24.276Z,27.49
2023-06-29T19:59:52.092Z,27.45
2023-06-29T20:02:19.912Z,27.47
2023-06-29T20:04:47.731Z,27.43
2023-06-29T20:07:15.736Z,27.41
2023-06-29T20:09:44.846Z,27.38
2023-06-29T20:12:12.679Z,27.31
2023-06-29T20:14:40.691Z,27.33
2023-06-29T20:17:08.764Z,27.33
2023-06-29T20:19:36.518Z,27.31
2023-06-29T20:22:04.620Z,27.29
2023-06-29T20:24:32.379Z,27.28
2023-06-29T20:27:01.629Z,27.25
2023-06-29T20:29:30.148Z,27.23
2023-06-29T20:31:57.955Z,27.19
2023-06-29T20:34:25.785Z,27.16
2023-06-29T20:36:53.549Z,27.11
2023-06-29T20:39:23.438Z,27.08
2023-06-29T20:41:51.314Z,27.04
2023-06-29T20:44:20.459Z,27.00
2023-06-29T20:46:49.234Z,26.98
2023-06-29T20:49:19.125Z,26.95
2023-06-29T20:51:47.251Z,26.71
2023-06-29T20:54:15.185Z,26.86
2023-06-29T20:56:42.904Z,26.82
2023-06-29T20:59:11.009Z,26.78
2023-06-29T21:01:40.694Z,26.70
2023-06-29T21:04:10.420Z,26.69
2023-06-29T21:06:38.436Z,26.66
2023-06-29T21:09:06.480Z,26.62
2023-06-29T21:11:35.435Z,26.44
2023-06-29T21:14:04.590Z,26.59
2023-06-29T21:16:32.582Z,26.57
2023-06-29T21:19:02.543Z,26.53
2023-06-29T21:21:30.571Z,26.51
2023-06-29T21:23:58.659Z,26.45
2023-06-29T21:26:27.510Z,26.41
2023-06-29T21:28:55.890Z,26.36
2023-06-29T21:31:23.802Z,26.35
2023-06-29T21:33:52.001Z,26.32
2023-06-29T21:36:21.463Z,26.19
2023-06-29T21:38:51.075Z,26.23
2023-06-29T21:41:21.188Z,26.18
2023-06-29T21:43:48.949Z,26.17
2023-06-29T21:46:16.916Z,26.13
2023-06-29T21:48:45.032Z,26.11
2023-06-29T21:51:12.857Z,26.04
2023-06-29T21:53:42.131Z,25.98
2023-06-29T21:56:24.788Z,25.94
2023-06-29T21:58:54.048Z,25.88
2023-06-29T22:01:22.494Z,25.61
2023-06-29T22:03:50.430Z,25.85
2023-06-29T22:06:18.349Z,25.81
2023-06-29T22:08:47.530Z,25.78
2023-06-29T22:11:15.279Z,25.76
2023-06-29T22:13:44.434Z,25.73
2023-06-29T22:16:12.319Z,25.73
2023-06-29T22:18:40.107Z,25.72
2023-06-29T22:21:08.182Z,25.72
2023-06-29T22:23:35.986Z,25.71
2023-06-29T22:26:05.156Z,25.68
2023-06-29T22:28:32.858Z,25.64
2023-06-29T22:31:00.677Z,25.61
2023-06-29T22:33:28.474Z,25.60
2023-06-29T22:35:56.376Z,25.60
2023-06-29T22:38:24.121Z,25.57
2023-06-29T22:40:51.869Z,25.57
2023-06-29T22:43:21.125Z,25.52
2023-06-29T22:45:49.352Z,25.54
2023-06-29T22:48:17.076Z,25.53
2023-06-29T22:50:44.841Z,25.51
2023-06-29T22:53:12.617Z,25.49
2023-06-29T22:55:40.355Z,25.37
2023-06-29T22:58:08.175Z,25.44
2023-06-29T23:00:38.841Z,25.42
2023-06-29T23:03:06.699Z,25.40
2023-06-29T23:05:34.444Z,25.37
2023-06-29T23:08:02.323Z,25.36
2023-06-29T23:10:30.049Z,25.35
2023-06-29T23:12:59.141Z,25.26
2023-06-29T23:15:27.293Z,25.31
2023-06-29T23:17:56.514Z,25.26
2023-06-29T23:20:28.345Z,25.28
2023-06-29T23:22:58.357Z,25.27
2023-06-29T23:25:27.004Z,25.24
2023-06-29T23:27:54.956Z,25.20
2023-06-29T23:30:22.891Z,25.11
2023-06-29T23:32:50.899Z,24.99
2023-06-29T23:35:21.644Z,24.87
2023-06-29T23:37:49.501Z,24.78
2023-06-29T23:40:17.453Z,24.20
2023-06-29T23:42:46.371Z,24.62
2023-06-29T23:45:14.134Z,24.53
2023-06-29T23:47:43.401Z,24.47
2023-06-29T23:50:12.255Z,24.40
2023-06-29T23:52:42.633Z,24.31
2023-06-29T23:55:12.688Z,24.29
2023-06-29T23:57:41.576Z,24.19
